sensor_id;sensor_type;location;lat;lon;timestamp;P1;durP1;ratioP1;P2;durP2;ratioP2
67063;SDS011;58476;48.072;11.970;2023-04-24T00:00:34;1.10;;;0.70;;
67063;SDS011;58476;48.072;11.970;2023-04-24T00:03:00;2.83;;;0.95;;
67063;SDS011;58476;48.072;11.970;2023-04-24T00:05:25;3.80;;;1.15;;
67063;SDS011;58476;48.072;11.970;2023-04-24T00:07:50;1.00;;;0.70;;
67063;SDS011;58476;48.072;11.970;2023-04-24T00:10:16;0.90;;;0.80;;
67063;SDS011;58476;48.072;11.970;2023-04-24T00:12:41;1.83;;;0.90;;
67063;SDS011;58476;48.072;11.970;2023-04-24T00:15:07;2.53;;;0.90;;
67063;SDS011;58476;48.072;11.970;2023-04-24T00:17:33;2.22;;;1.30;;
67063;SDS011;58476;48.072;11.970;2023-04-24T00:19:58;0.80;;;0.80;;
67063;SDS011;58476;48.072;11.970;2023-04-24T00:22:24;2.95;;;0.90;;
67063;SDS011;58476;48.072;11.970;2023-04-24T00:24:50;5.85;;;2.35;;
67063;SDS011;58476;48.072;11.970;2023-04-24T00:27:15;1.38;;;0.60;;
67063;SDS011;58476;48.072;11.970;2023-04-24T00:29:40;1.27;;;0.65;;
67063;SDS011;58476;48.072;11.970;2023-04-24T00:32:05;0.95;;;0.55;;
67063;SDS011;58476;48.072;11.970;2023-04-24T00:34:31;3.40;;;1.15;;
67063;SDS011;58476;48.072;11.970;2023-04-24T00:36:57;3.10;;;0.93;;
67063;SDS011;58476;48.072;11.970;2023-04-24T00:39:22;2.88;;;0.70;;
67063;SDS011;58476;48.072;11.970;2023-04-24T00:41:47;3.97;;;0.80;;
67063;SDS011;58476;48.072;11.970;2023-04-24T00:44:13;1.90;;;0.80;;
67063;SDS011;58476;48.072;11.970;2023-04-24T00:46:39;4.82;;;2.08;;
67063;SDS011;58476;48.072;11.970;2023-04-24T00:49:05;1.95;;;0.70;;
67063;SDS011;58476;48.072;11.970;2023-04-24T00:51:30;0.60;;;0.60;;
67063;SDS011;58476;48.072;11.970;2023-04-24T00:53:56;1.65;;;0.60;;
67063;SDS011;58476;48.072;11.970;2023-04-24T00:56:21;1.05;;;0.70;;
67063;SDS011;58476;48.072;11.970;2023-04-24T00:58:47;2.88;;;0.70;;
67063;SDS011;58476;48.072;11.970;2023-04-24T01:01:12;0.65;;;0.60;;
67063;SDS011;58476;48.072;11.970;2023-04-24T01:03:38;0.50;;;0.45;;
67063;SDS011;58476;48.072;11.970;2023-04-24T01:06:03;3.20;;;0.70;;
67063;SDS011;58476;48.072;11.970;2023-04-24T01:08:30;2.40;;;0.60;;
67063;SDS011;58476;48.072;11.970;2023-04-24T01:10:56;2.00;;;0.60;;
67063;SDS011;58476;48.072;11.970;2023-04-24T01:13:22;1.38;;;0.55;;
67063;SDS011;58476;48.072;11.970;2023-04-24T01:15:48;0.73;;;0.50;;
67063;SDS011;58476;48.072;11.970;2023-04-24T01:18:13;2.92;;;0.52;;
67063;SDS011;58476;48.072;11.970;2023-04-24T01:20:40;0.40;;;0.40;;
67063;SDS011;58476;48.072;11.970;2023-04-24T01:23:06;2.15;;;0.60;;
67063;SDS011;58476;48.072;11.970;2023-04-24T01:25:32;0.73;;;0.63;;
67063;SDS011;58476;48.072;11.970;2023-04-24T01:27:58;3.58;;;0.65;;
67063;SDS011;58476;48.072;11.970;2023-04-24T01:30:24;0.98;;;0.63;;
67063;SDS011;58476;48.072;11.970;2023-04-24T01:32:50;2.03;;;0.47;;
67063;SDS011;58476;48.072;11.970;2023-04-24T01:35:16;1.38;;;0.60;;
67063;SDS011;58476;48.072;11.970;2023-04-24T01:37:42;0.63;;;0.50;;
67063;SDS011;58476;48.072;11.970;2023-04-24T01:40:07;1.17;;;0.60;;
67063;SDS011;58476;48.072;11.970;2023-04-24T01:42:34;0.73;;;0.60;;
67063;SDS011;58476;48.072;11.970;2023-04-24T01:45:01;0.43;;;0.43;;
67063;SDS011;58476;48.072;11.970;2023-04-24T01:47:29;0.98;;;0.60;;
67063;SDS011;58476;48.072;11.970;2023-04-24T01:49:56;0.73;;;0.40;;
67063;SDS011;58476;48.072;11.970;2023-04-24T01:52:21;0.70;;;0.50;;
67063;SDS011;58476;48.072;11.970;2023-04-24T01:54:47;0.43;;;0.43;;
67063;SDS011;58476;48.072;11.970;2023-04-24T01:57:13;0.40;;;0.40;;
67063;SDS011;58476;48.072;11.970;2023-04-24T01:59:40;0.40;;;0.40;;
67063;SDS011;58476;48.072;11.970;2023-04-24T02:02:05;0.40;;;0.40;;
67063;SDS011;58476;48.072;11.970;2023-04-24T02:04:31;1.55;;;0.55;;
67063;SDS011;58476;48.072;11.970;2023-04-24T02:06:56;0.40;;;0.40;;
67063;SDS011;58476;48.072;11.970;2023-04-24T02:09:23;0.90;;;0.47;;
67063;SDS011;58476;48.072;11.970;2023-04-24T02:11:49;0.40;;;0.40;;
67063;SDS011;58476;48.072;11.970;2023-04-24T02:14:14;0.98;;;0.40;;
67063;SDS011;58476;48.072;11.970;2023-04-24T02:16:40;0.40;;;0.40;;
67063;SDS011;58476;48.072;11.970;2023-04-24T02:19:05;2.25;;;0.50;;
67063;SDS011;58476;48.072;11.970;2023-04-24T02:21:31;0.50;;;0.35;;
67063;SDS011;58476;48.072;11.970;2023-04-24T02:23:56;0.30;;;0.30;;
67063;SDS011;58476;48.072;11.970;2023-04-24T02:26:22;0.82;;;0.50;;
67063;SDS011;58476;48.072;11.970;2023-04-24T02:28:50;0.68;;;0.40;;
67063;SDS011;58476;48.072;11.970;2023-04-24T02:31:15;0.50;;;0.40;;
67063;SDS011;58476;48.072;11.970;2023-04-24T02:33:41;0.20;;;0.20;;
67063;SDS011;58476;48.072;11.970;2023-04-24T02:36:06;1.17;;;0.45;;
67063;SDS011;58476;48.072;11.970;2023-04-24T02:38:32;1.58;;;0.40;;
67063;SDS011;58476;48.072;11.970;2023-04-24T02:40:57;0.70;;;0.52;;
67063;SDS011;58476;48.072;11.970;2023-04-24T02:43:25;0.45;;;0.45;;
67063;SDS011;58476;48.072;11.970;2023-04-24T02:45:50;0.50;;;0.40;;
67063;SDS011;58476;48.072;11.970;2023-04-24T02:48:15;0.40;;;0.40;;
67063;SDS011;58476;48.072;11.970;2023-04-24T02:50:41;1.10;;;0.40;;
67063;SDS011;58476;48.072;11.970;2023-04-24T02:53:06;0.30;;;0.30;;
67063;SDS011;58476;48.072;11.970;2023-04-24T02:55:32;1.15;;;0.40;;
67063;SDS011;58476;48.072;11.970;2023-04-24T02:57:57;0.30;;;0.30;;
67063;SDS011;58476;48.072;11.970;2023-04-24T03:00:23;0.30;;;0.30;;
67063;SDS011;58476;48.072;11.970;2023-04-24T03:02:48;1.13;;;0.30;;
67063;SDS011;58476;48.072;11.970;2023-04-24T03:05:13;0.40;;;0.40;;
67063;SDS011;58476;48.072;11.970;2023-04-24T03:07:39;0.40;;;0.40;;
67063;SDS011;58476;48.072;11.970;2023-04-24T03:10:04;0.80;;;0.38;;
67063;SDS011;58476;48.072;11.970;2023-04-24T03:12:30;0.30;;;0.30;;
67063;SDS011;58476;48.072;11.970;2023-04-24T03:14:55;0.20;;;0.20;;
67063;SDS011;58476;48.072;11.970;2023-04-24T03:17:21;0.30;;;0.30;;
67063;SDS011;58476;48.072;11.970;2023-04-24T03:19:46;0.50;;;0.32;;
67063;SDS011;58476;48.072;11.970;2023-04-24T03:22:12;0.38;;;0.38;;
67063;SDS011;58476;48.072;11.970;2023-04-24T03:24:38;0.47;;;0.30;;
67063;SDS011;58476;48.072;11.970;2023-04-24T03:27:04;0.73;;;0.32;;
67063;SDS011;58476;48.072;11.970;2023-04-24T03:29:48;1.67;;;0.43;;
67063;SDS011;58476;48.072;11.970;2023-04-24T03:32:15;0.57;;;0.40;;
67063;SDS011;58476;48.072;11.970;2023-04-24T03:34:41;0.28;;;0.25;;
67063;SDS011;58476;48.072;11.970;2023-04-24T03:37:08;2.97;;;0.40;;
67063;SDS011;58476;48.072;11.970;2023-04-24T03:39:39;0.30;;;0.30;;
67063;SDS011;58476;48.072;11.970;2023-04-24T03:42:04;0.40;;;0.40;;
67063;SDS011;58476;48.072;11.970;2023-04-24T03:44:41;0.93;;;0.50;;
67063;SDS011;58476;48.072;11.970;2023-04-24T03:47:06;9.40;;;0.52;;
67063;SDS011;58476;48.072;11.970;2023-04-24T03:49:32;0.55;;;0.40;;
67063;SDS011;58476;48.072;11.970;2023-04-24T03:51:57;1.27;;;0.68;;
67063;SDS011;58476;48.072;11.970;2023-04-24T03:54:25;3.08;;;0.60;;
67063;SDS011;58476;48.072;11.970;2023-04-24T03:56:52;4.03;;;0.60;;
67063;SDS011;58476;48.072;11.970;2023-04-24T03:59:18;3.80;;;0.60;;
67063;SDS011;58476;48.072;11.970;2023-04-24T04:01:48;1.30;;;0.40;;
67063;SDS011;58476;48.072;11.970;2023-04-24T04:04:15;3.83;;;0.65;;
67063;SDS011;58476;48.072;11.970;2023-04-24T04:06:42;4.38;;;0.85;;
67063;SDS011;58476;48.072;11.970;2023-04-24T04:09:08;4.07;;;0.68;;
67063;SDS011;58476;48.072;11.970;2023-04-24T04:11:34;3.60;;;0.43;;
67063;SDS011;58476;48.072;11.970;2023-04-24T04:14:00;18.00;;;1.20;;
67063;SDS011;58476;48.072;11.970;2023-04-24T04:16:25;15.15;;;1.33;;
67063;SDS011;58476;48.072;11.970;2023-04-24T04:18:56;12.13;;;0.85;;
67063;SDS011;58476;48.072;11.970;2023-04-24T04:21:21;11.77;;;1.23;;
67063;SDS011;58476;48.072;11.970;2023-04-24T04:23:50;11.40;;;1.13;;
67063;SDS011;58476;48.072;11.970;2023-04-24T04:26:24;11.65;;;0.77;;
67063;SDS011;58476;48.072;11.970;2023-04-24T04:29:00;7.68;;;1.02;;
67063;SDS011;58476;48.072;11.970;2023-04-24T04:31:27;5.20;;;0.57;;
67063;SDS011;58476;48.072;11.970;2023-04-24T04:33:53;9.60;;;0.80;;
67063;SDS011;58476;48.072;11.970;2023-04-24T04:36:19;4.13;;;0.70;;
67063;SDS011;58476;48.072;11.970;2023-04-24T04:38:49;9.52;;;0.85;;
67063;SDS011;58476;48.072;11.970;2023-04-24T04:41:31;14.55;;;1.50;;
67063;SDS011;58476;48.072;11.970;2023-04-24T04:43:56;16.98;;;1.38;;
67063;SDS011;58476;48.072;11.970;2023-04-24T04:46:21;9.80;;;1.33;;
67063;SDS011;58476;48.072;11.970;2023-04-24T04:49:05;8.73;;;0.90;;
67063;SDS011;58476;48.072;11.970;2023-04-24T04:51:31;12.05;;;1.55;;
67063;SDS011;58476;48.072;11.970;2023-04-24T04:53:56;9.25;;;0.93;;
67063;SDS011;58476;48.072;11.970;2023-04-24T04:56:22;4.50;;;0.65;;
67063;SDS011;58476;48.072;11.970;2023-04-24T04:58:48;4.45;;;0.65;;
67063;SDS011;58476;48.072;11.970;2023-04-24T05:01:15;8.50;;;1.35;;
67063;SDS011;58476;48.072;11.970;2023-04-24T05:03:44;3.97;;;0.80;;
67063;SDS011;58476;48.072;11.970;2023-04-24T05:06:12;3.95;;;0.82;;
67063;SDS011;58476;48.072;11.970;2023-04-24T05:08:38;12.63;;;1.23;;
67063;SDS011;58476;48.072;11.970;2023-04-24T05:11:07;8.15;;;0.80;;
67063;SDS011;58476;48.072;11.970;2023-04-24T05:13:33;6.07;;;0.70;;
67063;SDS011;58476;48.072;11.970;2023-04-24T05:15:59;2.88;;;0.65;;
67063;SDS011;58476;48.072;11.970;2023-04-24T05:18:26;5.57;;;0.70;;
67063;SDS011;58476;48.072;11.970;2023-04-24T05:20:51;2.40;;;0.63;;
67063;SDS011;58476;48.072;11.970;2023-04-24T05:23:17;3.40;;;0.70;;
67063;SDS011;58476;48.072;11.970;2023-04-24T05:25:44;5.13;;;0.45;;
67063;SDS011;58476;48.072;11.970;2023-04-24T05:28:11;2.20;;;0.50;;
67063;SDS011;58476;48.072;11.970;2023-04-24T05:30:37;6.70;;;0.68;;
67063;SDS011;58476;48.072;11.970;2023-04-24T05:33:02;3.95;;;0.75;;
67063;SDS011;58476;48.072;11.970;2023-04-24T05:35:29;2.70;;;0.80;;
67063;SDS011;58476;48.072;11.970;2023-04-24T05:37:55;2.88;;;0.60;;
67063;SDS011;58476;48.072;11.970;2023-04-24T05:40:20;7.93;;;0.82;;
67063;SDS011;58476;48.072;11.970;2023-04-24T05:42:47;6.18;;;0.50;;
67063;SDS011;58476;48.072;11.970;2023-04-24T05:45:12;0.65;;;0.40;;
67063;SDS011;58476;48.072;11.970;2023-04-24T05:47:37;1.73;;;0.50;;
67063;SDS011;58476;48.072;11.970;2023-04-24T05:50:04;1.10;;;0.47;;
67063;SDS011;58476;48.072;11.970;2023-04-24T05:52:30;3.42;;;0.63;;
67063;SDS011;58476;48.072;11.970;2023-04-24T05:54:55;4.68;;;0.80;;
67063;SDS011;58476;48.072;11.970;2023-04-24T05:57:24;0.95;;;0.60;;
67063;SDS011;58476;48.072;11.970;2023-04-24T05:59:57;0.60;;;0.30;;
67063;SDS011;58476;48.072;11.970;2023-04-24T06:02:22;1.23;;;0.40;;
67063;SDS011;58476;48.072;11.970;2023-04-24T06:04:47;2.38;;;0.57;;
67063;SDS011;58476;48.072;11.970;2023-04-24T06:07:13;2.72;;;0.70;;
67063;SDS011;58476;48.072;11.970;2023-04-24T06:09:40;2.70;;;0.50;;
67063;SDS011;58476;48.072;11.970;2023-04-24T06:12:06;3.70;;;1.10;;
67063;SDS011;58476;48.072;11.970;2023-04-24T06:14:45;1.85;;;0.47;;
67063;SDS011;58476;48.072;11.970;2023-04-24T06:17:33;2.00;;;0.60;;
67063;SDS011;58476;48.072;11.970;2023-04-24T06:19:58;2.25;;;0.45;;
67063;SDS011;58476;48.072;11.970;2023-04-24T06:22:24;1.58;;;0.38;;
67063;SDS011;58476;48.072;11.970;2023-04-24T06:24:49;3.17;;;0.40;;
67063;SDS011;58476;48.072;11.970;2023-04-24T06:27:15;2.60;;;0.60;;
67063;SDS011;58476;48.072;11.970;2023-04-24T06:29:40;8.65;;;2.50;;
67063;SDS011;58476;48.072;11.970;2023-04-24T06:32:05;0.55;;;0.40;;
67063;SDS011;58476;48.072;11.970;2023-04-24T06:34:31;2.50;;;0.50;;
67063;SDS011;58476;48.072;11.970;2023-04-24T06:36:56;4.07;;;1.15;;
67063;SDS011;58476;48.072;11.970;2023-04-24T06:39:22;0.30;;;0.30;;
67063;SDS011;58476;48.072;11.970;2023-04-24T06:41:47;4.00;;;0.60;;
67063;SDS011;58476;48.072;11.970;2023-04-24T06:44:18;5.30;;;0.73;;
67063;SDS011;58476;48.072;11.970;2023-04-24T06:46:43;4.35;;;0.70;;
67063;SDS011;58476;48.072;11.970;2023-04-24T06:49:09;7.05;;;0.93;;
67063;SDS011;58476;48.072;11.970;2023-04-24T06:51:34;1.92;;;0.60;;
67063;SDS011;58476;48.072;11.970;2023-04-24T06:53:59;1.25;;;0.52;;
67063;SDS011;58476;48.072;11.970;2023-04-24T06:56:25;1.17;;;0.70;;
67063;SDS011;58476;48.072;11.970;2023-04-24T06:58:51;4.32;;;0.60;;
67063;SDS011;58476;48.072;11.970;2023-04-24T07:01:16;3.38;;;0.93;;
67063;SDS011;58476;48.072;11.970;2023-04-24T07:03:42;3.65;;;0.57;;
67063;SDS011;58476;48.072;11.970;2023-04-24T07:06:07;3.85;;;0.93;;
67063;SDS011;58476;48.072;11.970;2023-04-24T07:08:34;3.65;;;0.98;;
67063;SDS011;58476;48.072;11.970;2023-04-24T07:10:59;17.25;;;1.35;;
67063;SDS011;58476;48.072;11.970;2023-04-24T07:13:25;17.98;;;2.33;;
67063;SDS011;58476;48.072;11.970;2023-04-24T07:15:50;21.13;;;2.78;;
67063;SDS011;58476;48.072;11.970;2023-04-24T07:18:16;2.72;;;0.90;;
67063;SDS011;58476;48.072;11.970;2023-04-24T07:20:42;16.33;;;3.35;;
67063;SDS011;58476;48.072;11.970;2023-04-24T07:23:07;8.88;;;1.38;;
67063;SDS011;58476;48.072;11.970;2023-04-24T07:25:32;19.85;;;2.95;;
67063;SDS011;58476;48.072;11.970;2023-04-24T07:27:58;18.65;;;2.08;;
67063;SDS011;58476;48.072;11.970;2023-04-24T07:30:24;15.15;;;2.08;;
67063;SDS011;58476;48.072;11.970;2023-04-24T07:32:49;17.88;;;2.28;;
67063;SDS011;58476;48.072;11.970;2023-04-24T07:35:14;20.30;;;1.98;;
67063;SDS011;58476;48.072;11.970;2023-04-24T07:37:40;21.67;;;2.03;;
67063;SDS011;58476;48.072;11.970;2023-04-24T07:40:05;3.70;;;1.08;;
67063;SDS011;58476;48.072;11.970;2023-04-24T07:42:31;16.60;;;1.45;;
67063;SDS011;58476;48.072;11.970;2023-04-24T07:44:56;12.43;;;1.02;;
67063;SDS011;58476;48.072;11.970;2023-04-24T07:47:22;10.95;;;0.93;;
67063;SDS011;58476;48.072;11.970;2023-04-24T07:49:47;7.93;;;1.00;;
67063;SDS011;58476;48.072;11.970;2023-04-24T07:52:13;8.40;;;1.20;;
67063;SDS011;58476;48.072;11.970;2023-04-24T07:54:38;4.72;;;0.93;;
67063;SDS011;58476;48.072;11.970;2023-04-24T07:57:03;13.55;;;1.42;;
67063;SDS011;58476;48.072;11.970;2023-04-24T07:59:29;10.07;;;1.45;;
67063;SDS011;58476;48.072;11.970;2023-04-24T08:01:54;8.18;;;1.02;;
67063;SDS011;58476;48.072;11.970;2023-04-24T08:04:20;8.18;;;0.90;;
67063;SDS011;58476;48.072;11.970;2023-04-24T08:06:46;9.80;;;1.23;;
67063;SDS011;58476;48.072;11.970;2023-04-24T08:09:12;8.93;;;0.95;;
67063;SDS011;58476;48.072;11.970;2023-04-24T08:11:37;5.00;;;0.85;;
67063;SDS011;58476;48.072;11.970;2023-04-24T08:14:03;6.35;;;0.88;;
67063;SDS011;58476;48.072;11.970;2023-04-24T08:16:28;8.27;;;1.08;;
67063;SDS011;58476;48.072;11.970;2023-04-24T08:18:54;9.18;;;1.13;;
67063;SDS011;58476;48.072;11.970;2023-04-24T08:21:19;4.90;;;1.45;;
67063;SDS011;58476;48.072;11.970;2023-04-24T08:23:45;7.40;;;0.90;;
67063;SDS011;58476;48.072;11.970;2023-04-24T08:26:10;4.13;;;0.90;;
67063;SDS011;58476;48.072;11.970;2023-04-24T08:28:36;3.55;;;1.00;;
67063;SDS011;58476;48.072;11.970;2023-04-24T08:31:02;2.45;;;0.57;;
67063;SDS011;58476;48.072;11.970;2023-04-24T08:33:27;9.32;;;0.93;;
67063;SDS011;58476;48.072;11.970;2023-04-24T08:35:53;7.55;;;1.30;;
67063;SDS011;58476;48.072;11.970;2023-04-24T08:38:18;4.65;;;0.77;;
67063;SDS011;58476;48.072;11.970;2023-04-24T08:40:43;2.25;;;0.57;;
67063;SDS011;58476;48.072;11.970;2023-04-24T08:43:09;4.43;;;0.60;;
67063;SDS011;58476;48.072;11.970;2023-04-24T08:45:35;2.15;;;0.50;;
67063;SDS011;58476;48.072;11.970;2023-04-24T08:48:01;7.25;;;0.93;;
67063;SDS011;58476;48.072;11.970;2023-04-24T08:50:27;5.13;;;1.27;;
67063;SDS011;58476;48.072;11.970;2023-04-24T08:52:54;1.65;;;0.47;;
67063;SDS011;58476;48.072;11.970;2023-04-24T08:55:19;1.35;;;0.50;;
67063;SDS011;58476;48.072;11.970;2023-04-24T08:57:46;3.53;;;0.88;;
67063;SDS011;58476;48.072;11.970;2023-04-24T09:00:15;5.47;;;0.77;;
67063;SDS011;58476;48.072;11.970;2023-04-24T09:02:42;5.28;;;0.70;;
67063;SDS011;58476;48.072;11.970;2023-04-24T09:05:08;6.55;;;0.50;;
67063;SDS011;58476;48.072;11.970;2023-04-24T09:07:34;1.42;;;0.40;;
67063;SDS011;58476;48.072;11.970;2023-04-24T09:10:01;3.75;;;0.55;;
67063;SDS011;58476;48.072;11.970;2023-04-24T09:12:27;0.60;;;0.45;;
67063;SDS011;58476;48.072;11.970;2023-04-24T09:14:52;3.20;;;0.60;;
67063;SDS011;58476;48.072;11.970;2023-04-24T09:17:19;2.33;;;0.55;;
67063;SDS011;58476;48.072;11.970;2023-04-24T09:19:44;3.53;;;0.45;;
67063;SDS011;58476;48.072;11.970;2023-04-24T09:22:10;5.43;;;1.33;;
67063;SDS011;58476;48.072;11.970;2023-04-24T09:24:36;4.72;;;0.50;;
67063;SDS011;58476;48.072;11.970;2023-04-24T09:27:01;1.38;;;0.32;;
67063;SDS011;58476;48.072;11.970;2023-04-24T09:29:27;4.18;;;0.50;;
67063;SDS011;58476;48.072;11.970;2023-04-24T09:31:53;3.13;;;0.60;;
67063;SDS011;58476;48.072;11.970;2023-04-24T09:34:22;2.05;;;0.55;;
67063;SDS011;58476;48.072;11.970;2023-04-24T09:36:48;4.32;;;0.73;;
67063;SDS011;58476;48.072;11.970;2023-04-24T09:39:15;2.30;;;0.60;;
67063;SDS011;58476;48.072;11.970;2023-04-24T09:44:13;2.97;;;0.40;;
67063;SDS011;58476;48.072;11.970;2023-04-24T09:46:44;2.92;;;0.60;;
67063;SDS011;58476;48.072;11.970;2023-04-24T09:49:14;3.78;;;0.70;;
67063;SDS011;58476;48.072;11.970;2023-04-24T09:51:40;1.88;;;0.38;;
67063;SDS011;58476;48.072;11.970;2023-04-24T09:54:16;1.75;;;0.63;;
67063;SDS011;58476;48.072;11.970;2023-04-24T09:56:43;1.77;;;0.68;;
67063;SDS011;58476;48.072;11.970;2023-04-24T09:59:09;1.55;;;0.93;;
67063;SDS011;58476;48.072;11.970;2023-04-24T10:01:35;1.20;;;0.45;;
67063;SDS011;58476;48.072;11.970;2023-04-24T10:04:00;1.02;;;0.60;;
67063;SDS011;58476;48.072;11.970;2023-04-24T10:06:33;0.75;;;0.30;;
67063;SDS011;58476;48.072;11.970;2023-04-24T10:08:59;0.38;;;0.38;;
67063;SDS011;58476;48.072;11.970;2023-04-24T10:11:26;1.80;;;0.50;;
67063;SDS011;58476;48.072;11.970;2023-04-24T10:13:52;3.05;;;0.45;;
67063;SDS011;58476;48.072;11.970;2023-04-24T10:16:18;1.83;;;0.82;;
67063;SDS011;58476;48.072;11.970;2023-04-24T10:18:46;1.95;;;0.30;;
67063;SDS011;58476;48.072;11.970;2023-04-24T10:21:14;1.38;;;0.40;;
67063;SDS011;58476;48.072;11.970;2023-04-24T10:23:40;0.60;;;0.35;;
67063;SDS011;58476;48.072;11.970;2023-04-24T10:26:08;1.55;;;0.50;;
67063;SDS011;58476;48.072;11.970;2023-04-24T10:28:34;0.88;;;0.40;;
67063;SDS011;58476;48.072;11.970;2023-04-24T10:31:01;5.22;;;0.50;;
67063;SDS011;58476;48.072;11.970;2023-04-24T10:33:27;1.13;;;0.20;;
67063;SDS011;58476;48.072;11.970;2023-04-24T10:35:54;2.10;;;0.45;;
67063;SDS011;58476;48.072;11.970;2023-04-24T10:38:26;5.13;;;0.57;;
67063;SDS011;58476;48.072;11.970;2023-04-24T10:40:57;3.22;;;0.52;;
67063;SDS011;58476;48.072;11.970;2023-04-24T10:43:31;0.68;;;0.43;;
67063;SDS011;58476;48.072;11.970;2023-04-24T10:46:02;0.77;;;0.40;;
67063;SDS011;58476;48.072;11.970;2023-04-24T10:48:28;0.80;;;0.35;;
67063;SDS011;58476;48.072;11.970;2023-04-24T10:50:54;0.30;;;0.20;;
67063;SDS011;58476;48.072;11.970;2023-04-24T10:53:20;0.60;;;0.40;;
67063;SDS011;58476;48.072;11.970;2023-04-24T10:58:25;0.77;;;0.38;;
67063;SDS011;58476;48.072;11.970;2023-04-24T11:01:01;3.70;;;0.45;;
67063;SDS011;58476;48.072;11.970;2023-04-24T11:03:30;3.67;;;0.35;;
67063;SDS011;58476;48.072;11.970;2023-04-24T11:08:47;0.30;;;0.30;;
67063;SDS011;58476;48.072;11.970;2023-04-24T11:11:13;0.60;;;0.40;;
67063;SDS011;58476;48.072;11.970;2023-04-24T11:24:26;0.65;;;0.40;;
67063;SDS011;58476;48.072;11.970;2023-04-24T11:29:47;3.65;;;0.82;;
67063;SDS011;58476;48.072;11.970;2023-04-24T11:34:53;1.65;;;0.55;;
67063;SDS011;58476;48.072;11.970;2023-04-24T11:37:21;2.03;;;0.70;;
67063;SDS011;58476;48.072;11.970;2023-04-24T11:39:47;5.35;;;0.73;;
67063;SDS011;58476;48.072;11.970;2023-04-24T11:42:15;6.00;;;0.50;;
67063;SDS011;58476;48.072;11.970;2023-04-24T11:44:41;2.17;;;0.47;;
67063;SDS011;58476;48.072;11.970;2023-04-24T11:47:07;3.00;;;0.50;;
67063;SDS011;58476;48.072;11.970;2023-04-24T11:49:33;1.95;;;0.50;;
67063;SDS011;58476;48.072;11.970;2023-04-24T11:52:02;1.08;;;0.60;;
67063;SDS011;58476;48.072;11.970;2023-04-24T11:54:29;3.17;;;0.60;;
67063;SDS011;58476;48.072;11.970;2023-04-24T11:56:55;6.75;;;0.93;;
67063;SDS011;58476;48.072;11.970;2023-04-24T11:59:21;3.45;;;0.93;;
67063;SDS011;58476;48.072;11.970;2023-04-24T12:01:47;4.53;;;0.70;;
67063;SDS011;58476;48.072;11.970;2023-04-24T12:04:14;1.52;;;0.70;;
67063;SDS011;58476;48.072;11.970;2023-04-24T12:06:58;2.47;;;0.60;;
67063;SDS011;58476;48.072;11.970;2023-04-24T12:09:24;3.28;;;0.68;;
67063;SDS011;58476;48.072;11.970;2023-04-24T12:11:56;2.78;;;0.80;;
67063;SDS011;58476;48.072;11.970;2023-04-24T12:14:22;6.93;;;0.80;;
67063;SDS011;58476;48.072;11.970;2023-04-24T12:16:48;3.10;;;0.80;;
67063;SDS011;58476;48.072;11.970;2023-04-24T12:19:18;1.10;;;0.60;;
67063;SDS011;58476;48.072;11.970;2023-04-24T12:21:59;1.85;;;0.73;;
67063;SDS011;58476;48.072;11.970;2023-04-24T12:24:26;4.75;;;1.00;;
67063;SDS011;58476;48.072;11.970;2023-04-24T12:26:51;3.67;;;1.10;;
67063;SDS011;58476;48.072;11.970;2023-04-24T12:29:20;9.20;;;0.63;;
67063;SDS011;58476;48.072;11.970;2023-04-24T12:31:45;3.42;;;0.70;;
67063;SDS011;58476;48.072;11.970;2023-04-24T12:34:17;2.05;;;0.75;;
67063;SDS011;58476;48.072;11.970;2023-04-24T12:36:44;5.53;;;0.93;;
67063;SDS011;58476;48.072;11.970;2023-04-24T12:39:18;5.88;;;0.90;;
67063;SDS011;58476;48.072;11.970;2023-04-24T12:42:25;4.10;;;1.40;;
67063;SDS011;58476;48.072;11.970;2023-04-24T12:44:36;3.83;;;0.82;;
67063;SDS011;58476;48.072;11.970;2023-04-24T12:47:01;6.10;;;0.85;;
67063;SDS011;58476;48.072;11.970;2023-04-24T12:49:27;2.80;;;0.73;;
67063;SDS011;58476;48.072;11.970;2023-04-24T12:51:55;5.35;;;0.98;;
67063;SDS011;58476;48.072;11.970;2023-04-24T12:54:20;4.75;;;0.80;;
67063;SDS011;58476;48.072;11.970;2023-04-24T12:56:47;4.10;;;0.80;;
67063;SDS011;58476;48.072;11.970;2023-04-24T12:59:12;3.28;;;0.60;;
67063;SDS011;58476;48.072;11.970;2023-04-24T13:01:37;2.65;;;0.77;;
67063;SDS011;58476;48.072;11.970;2023-04-24T13:04:04;2.55;;;0.57;;
67063;SDS011;58476;48.072;11.970;2023-04-24T13:06:30;3.92;;;1.20;;
67063;SDS011;58476;48.072;11.970;2023-04-24T13:08:55;4.57;;;1.00;;
67063;SDS011;58476;48.072;11.970;2023-04-24T13:11:21;9.00;;;1.20;;
67063;SDS011;58476;48.072;11.970;2023-04-24T13:13:46;5.88;;;0.95;;
67063;SDS011;58476;48.072;11.970;2023-04-24T13:19:41;5.43;;;0.70;;
67063;SDS011;58476;48.072;11.970;2023-04-24T13:22:11;4.93;;;1.00;;
67063;SDS011;58476;48.072;11.970;2023-04-24T13:24:37;6.10;;;1.15;;
67063;SDS011;58476;48.072;11.970;2023-04-24T13:27:03;4.78;;;0.77;;
67063;SDS011;58476;48.072;11.970;2023-04-24T13:29:29;5.90;;;1.45;;
67063;SDS011;58476;48.072;11.970;2023-04-24T13:31:54;4.72;;;0.93;;
67063;SDS011;58476;48.072;11.970;2023-04-24T13:34:20;5.40;;;0.77;;
67063;SDS011;58476;48.072;11.970;2023-04-24T13:36:46;3.63;;;0.88;;
67063;SDS011;58476;48.072;11.970;2023-04-24T13:39:12;3.28;;;0.70;;
67063;SDS011;58476;48.072;11.970;2023-04-24T13:41:37;7.30;;;0.88;;
67063;SDS011;58476;48.072;11.970;2023-04-24T13:44:03;2.63;;;0.63;;
67063;SDS011;58476;48.072;11.970;2023-04-24T13:46:29;4.95;;;0.80;;
67063;SDS011;58476;48.072;11.970;2023-04-24T13:48:55;4.45;;;0.90;;
67063;SDS011;58476;48.072;11.970;2023-04-24T13:51:20;4.13;;;0.70;;
67063;SDS011;58476;48.072;11.970;2023-04-24T13:53:45;4.22;;;0.73;;
67063;SDS011;58476;48.072;11.970;2023-04-24T13:56:11;1.88;;;0.75;;
67063;SDS011;58476;48.072;11.970;2023-04-24T13:58:36;4.25;;;0.70;;
67063;SDS011;58476;48.072;11.970;2023-04-24T14:01:02;0.80;;;0.47;;
67063;SDS011;58476;48.072;11.970;2023-04-24T14:03:27;0.80;;;0.40;;
67063;SDS011;58476;48.072;11.970;2023-04-24T14:05:53;1.60;;;0.60;;
67063;SDS011;58476;48.072;11.970;2023-04-24T14:08:18;3.08;;;0.82;;
67063;SDS011;58476;48.072;11.970;2023-04-24T14:10:43;1.38;;;0.93;;
67063;SDS011;58476;48.072;11.970;2023-04-24T14:13:09;2.65;;;0.90;;
67063;SDS011;58476;48.072;11.970;2023-04-24T14:15:37;1.42;;;0.60;;
67063;SDS011;58476;48.072;11.970;2023-04-24T14:18:03;1.88;;;0.70;;
67063;SDS011;58476;48.072;11.970;2023-04-24T14:20:28;4.25;;;0.60;;
67063;SDS011;58476;48.072;11.970;2023-04-24T14:22:54;0.85;;;0.60;;
67063;SDS011;58476;48.072;11.970;2023-04-24T14:25:19;1.52;;;0.80;;
67063;SDS011;58476;48.072;11.970;2023-04-24T14:27:45;1.88;;;0.60;;
67063;SDS011;58476;48.072;11.970;2023-04-24T14:30:10;3.30;;;0.60;;
67063;SDS011;58476;48.072;11.970;2023-04-24T14:32:37;0.80;;;0.70;;
67063;SDS011;58476;48.072;11.970;2023-04-24T14:35:03;2.17;;;0.65;;
67063;SDS011;58476;48.072;11.970;2023-04-24T14:37:29;2.35;;;0.73;;
67063;SDS011;58476;48.072;11.970;2023-04-24T14:39:54;2.97;;;0.80;;
67063;SDS011;58476;48.072;11.970;2023-04-24T14:42:20;1.55;;;0.80;;
67063;SDS011;58476;48.072;11.970;2023-04-24T14:44:45;3.38;;;0.80;;
67063;SDS011;58476;48.072;11.970;2023-04-24T14:47:10;2.60;;;0.60;;
67063;SDS011;58476;48.072;11.970;2023-04-24T14:49:36;4.10;;;0.60;;
67063;SDS011;58476;48.072;11.970;2023-04-24T14:52:01;4.32;;;1.00;;
67063;SDS011;58476;48.072;11.970;2023-04-24T14:54:26;10.95;;;1.00;;
67063;SDS011;58476;48.072;11.970;2023-04-24T14:56:52;0.85;;;0.47;;